Ephraim, Utah
Current Conditions -  °F | °C
As of 6:53 AM on Tuesday 21 Oct 2014 (Local Time) from KPUC Reporting Station
Clear Clear  
Wind Chill: 43°   Ceiling: Unl
Heat Index: 46°   Visibility: 10mi
Dew Point: 35°   Wind: 6mph
Humidity: 66%   Direction: 10°N
Pressure: 30.06"   Gusts: NA
Location:  39.36°N, 111.59°W
Report Text: KPUC 211253Z AUTO 01005KT 10SM CLR 08/02 A3006 RMK AO2 SLP145 T00780017 TSNO
Loading
Personal Weather Stations






























Interactive Weather Map
Tropical Storm Tracking
New forecast layout! Learn more

10-Day Weather Forecast

Advertisements
Track Severe Weather on mobile